Time;durP1;ratioP1;P1;durP2;ratioP2;P2;SDS_P1;SDS_P2;PMS_P1;PMS_P2;Temp;Humidity;BMP_temperature;BMP_pressure;BME280_temperature;BME280_humidity;BME280_pressure;Samples;Min_cycle;Max_cycle;Signal;HPM_P1;HPM_P2
2023/06/22 00:04:56;;;;;;;10.18;8.85;;;;;;;15.98;100.00;96894.94;10537290;28;20214;-72
2023/06/22 00:09:56;;;;;;;9.75;8.75;;;;;;;15.90;100.00;96907.47;10536487;28;20217;-73
2023/06/22 00:14:56;;;;;;;11.93;9.43;;;;;;;15.77;100.00;96911.56;10536048;28;20190;-73
2023/06/22 00:19:58;;;;;;;10.63;9.45;;;;;;;15.78;100.00;96913.22;10536897;28;20271;-73
2023/06/22 00:24:58;;;;;;;11.10;9.27;;;;;;;15.80;100.00;96919.16;10536343;28;20195;-73
2023/06/22 00:29:59;;;;;;;9.88;8.60;;;;;;;15.87;100.00;96924.50;10536389;28;20599;-73
2023/06/22 00:35:00;;;;;;;10.45;9.30;;;;;;;15.70;100.00;96915.94;10518103;28;20594;-72
2023/06/22 00:40:00;;;;;;;11.18;9.85;;;;;;;15.75;100.00;96908.25;10535800;28;20292;-73
2023/06/22 00:45:00;;;;;;;11.48;8.77;;;;;;;15.67;100.00;96908.38;10517637;28;20658;-72
2023/06/22 00:50:02;;;;;;;13.43;9.18;;;;;;;15.57;100.00;96913.09;10517353;28;20669;-73
2023/06/22 00:55:03;;;;;;;11.80;9.40;;;;;;;15.52;100.00;96911.81;10536100;28;20665;-73
2023/06/22 01:00:09;;;;;;;12.10;9.85;;;;;;;15.40;100.00;96913.28;10517401;28;20228;-72
2023/06/22 01:05:09;;;;;;;13.93;9.82;;;;;;;15.39;100.00;96918.75;10535646;28;20195;-72
2023/06/22 01:10:16;;;;;;;12.63;9.13;;;;;;;15.37;100.00;96912.84;10535255;28;20238;-73
2023/06/22 01:15:29;;;;;;;11.27;8.95;;;;;;;15.32;100.00;96903.63;10535477;28;20232;-73
2023/06/22 01:20:30;;;;;;;11.52;9.55;;;;;;;15.24;100.00;96902.94;10517334;28;20179;-73
2023/06/22 01:25:48;;;;;;;11.90;9.52;;;;;;;15.25;100.00;96902.75;10518347;28;20195;-73
2023/06/22 01:30:49;;;;;;;12.10;9.27;;;;;;;15.25;100.00;96910.66;10541741;28;20744;-73
2023/06/22 01:35:49;;;;;;;12.82;9.30;;;;;;;15.21;100.00;96901.47;10542400;28;20216;-73
2023/06/22 01:40:50;;;;;;;11.07;9.40;;;;;;;15.14;100.00;96895.25;10524364;28;20195;-74
2023/06/22 01:45:52;;;;;;;11.20;10.00;;;;;;;14.96;100.00;96888.50;10507011;28;20193;-73
2023/06/22 01:50:53;;;;;;;12.88;9.52;;;;;;;14.99;100.00;96900.50;10524219;28;20264;-73
2023/06/22 01:55:54;;;;;;;11.27;10.05;;;;;;;15.05;100.00;96899.78;10542028;28;20236;-73
2023/06/22 02:01:15;;;;;;;12.27;9.38;;;;;;;14.94;100.00;96882.59;10523631;28;20182;-73
2023/06/22 02:06:25;;;;;;;10.95;9.27;;;;;;;14.82;100.00;96881.38;10506631;28;20589;-73
2023/06/22 02:11:27;;;;;;;12.50;8.98;;;;;;;14.82;100.00;96894.56;10523125;28;20715;-73
2023/06/22 02:16:30;;;;;;;11.23;9.43;;;;;;;14.73;100.00;96893.00;10506978;28;20203;-73
2023/06/22 02:21:31;;;;;;;15.40;9.38;;;;;;;14.68;100.00;96898.00;10540959;28;20563;-73
2023/06/22 02:26:31;;;;;;;11.75;9.98;;;;;;;14.70;100.00;96885.44;10541126;28;20193;-73
2023/06/22 02:31:32;;;;;;;10.85;8.80;;;;;;;14.66;100.00;96881.53;10505697;28;20222;-73
2023/06/22 02:36:33;;;;;;;12.88;8.88;;;;;;;14.70;100.00;96890.72;10539965;28;20578;-73
2023/06/22 02:41:34;;;;;;;10.48;9.38;;;;;;;14.57;100.00;96892.13;10505607;28;20266;-74
2023/06/22 02:46:35;;;;;;;11.38;9.30;;;;;;;14.65;100.00;96893.09;10540123;28;20760;-73
2023/06/22 02:51:39;;;;;;;10.25;9.13;;;;;;;14.64;100.00;96876.44;10521189;28;20213;-74
2023/06/22 02:56:40;;;;;;;13.00;9.60;;;;;;;14.52;100.00;96888.38;10555059;28;20277;-73
2023/06/22 03:01:41;;;;;;;10.65;8.50;;;;;;;14.39;100.00;96884.50;10521126;28;20236;-74
2023/06/22 03:06:50;;;;;;;11.25;9.75;;;;;;;14.30;100.00;96887.38;10520638;28;20600;-73
2023/06/22 03:11:51;;;;;;;10.50;9.40;;;;;;;14.30;100.00;96887.38;10554468;28;20233;-73
2023/06/22 03:16:52;;;;;;;11.02;9.93;;;;;;;14.26;100.00;96874.56;10520248;28;20186;-73
2023/06/22 03:21:53;;;;;;;11.60;9.95;;;;;;;14.25;100.00;96851.03;10520104;28;20178;-73
2023/06/22 03:26:54;;;;;;;11.52;9.52;;;;;;;14.34;100.00;96860.50;10519948;28;20285;-73
2023/06/22 03:31:55;;;;;;;15.85;9.65;;;;;;;14.44;100.00;96847.06;10519338;28;20689;-73
2023/06/22 03:36:57;;;;;;;11.88;8.85;;;;;;;14.44;100.00;96853.19;10519588;28;20206;-73
2023/06/22 03:41:57;;;;;;;14.10;9.18;;;;;;;14.44;100.00;96847.06;10537432;28;20211;-73
2023/06/22 03:46:58;;;;;;;11.43;10.00;;;;;;;14.43;100.00;96840.19;10518859;28;20681;-73
2023/06/22 03:52:00;;;;;;;10.20;8.68;;;;;;;14.52;100.00;96840.94;10518748;28;20229;-73
2023/06/22 03:57:00;;;;;;;10.82;9.65;;;;;;;14.61;100.00;96830.16;10552715;28;20724;-73
2023/06/22 04:02:01;;;;;;;11.15;9.45;;;;;;;14.85;100.00;96838.00;10536693;28;20282;-73
2023/06/22 04:07:01;;;;;;;12.02;9.00;;;;;;;14.91;100.00;96835.47;10536681;28;20197;-73
2023/06/22 04:12:02;;;;;;;9.65;8.63;;;;;;;14.96;100.00;96827.84;10518151;28;20237;-73
2023/06/22 04:17:02;;;;;;;10.43;9.00;;;;;;;15.14;100.00;96827.50;10536410;28;20195;-73
2023/06/22 04:22:03;;;;;;;9.15;7.95;;;;;;;15.27;100.00;96821.56;10536278;28;20183;-74
2023/06/22 04:27:04;;;;;;;12.75;8.73;;;;;;;15.50;100.00;96813.50;10535910;28;20195;-74
2023/06/22 04:32:05;;;;;;;15.85;8.88;;;;;;;15.57;100.00;96821.50;10536063;28;20575;-73
2023/06/22 04:37:05;;;;;;;14.02;8.50;;;;;;;15.81;100.00;96817.75;10535532;28;20375;-73
2023/06/22 04:42:05;;;;;;;9.25;8.13;;;;;;;16.07;100.00;96824.31;10535846;28;20266;-73
2023/06/22 04:47:08;;;;;;;12.70;8.18;;;;;;;16.38;100.00;96834.53;10534817;28;20186;-73
2023/06/22 04:52:11;;;;;;;10.65;7.72;;;;;;;16.79;100.00;96829.59;10535356;28;20586;-73
2023/06/22 04:57:11;;;;;;;11.30;7.57;;;;;;;17.33;100.00;96842.16;10517845;28;20195;-73
2023/06/22 05:02:11;;;;;;;10.75;7.93;;;;;;;17.83;100.00;96861.31;10539474;28;20183;-73
2023/06/22 05:07:12;;;;;;;9.73;7.07;;;;;;;18.15;100.00;96869.59;10543933;28;20243;-73
2023/06/22 05:12:12;;;;;;;10.07;7.38;;;;;;;18.16;100.00;96884.50;10543064;28;20230;-73
2023/06/22 05:17:13;;;;;;;9.95;7.05;;;;;;;18.35;100.00;96884.72;10543451;28;20214;-73
2023/06/22 05:22:16;;;;;;;10.75;7.93;;;;;;;18.06;100.00;96894.66;10543094;28;20642;-72
2023/06/22 05:27:17;;;;;;;9.77;7.78;;;;;;;18.11;100.00;96888.75;10524773;28;20243;-72
2023/06/22 05:32:18;;;;;;;9.77;8.07;;;;;;;18.37;100.00;96872.06;10542501;28;20288;-72
2023/06/22 05:37:18;;;;;;;10.32;8.13;;;;;;;18.70;100.00;96871.31;10542305;28;20240;-72
2023/06/22 05:42:19;;;;;;;7.50;6.78;;;;;;;19.34;100.00;96863.69;10542263;28;20905;-73
2023/06/22 05:47:19;;;;;;;10.80;7.70;;;;;;;19.72;100.00;96863.75;10542067;28;20550;-72
2023/06/22 05:52:19;;;;;;;12.18;8.55;;;;;;;19.96;100.00;96861.44;10541981;28;20582;-73
2023/06/22 05:57:21;;;;;;;8.80;7.85;;;;;;;20.37;100.00;96856.69;10541927;28;20590;-73
2023/06/22 06:02:21;;;;;;;13.23;7.93;;;;;;;20.84;100.00;96846.50;10541466;28;20198;-73
2023/06/22 06:07:22;;;;;;;13.02;6.95;;;;;;;21.74;98.91;96826.50;10541482;28;20741;-72
2023/06/22 06:12:22;;;;;;;9.57;6.80;;;;;;;22.24;95.20;96822.75;10539718;28;20706;-72
2023/06/22 06:17:23;;;;;;;12.82;7.30;;;;;;;22.48;93.61;96822.84;10540968;28;20738;-72
2023/06/22 06:22:23;;;;;;;13.15;8.25;;;;;;;22.94;86.97;96791.84;10540760;28;20693;-73
2023/06/22 06:27:28;;;;;;;8.98;6.75;;;;;;;24.11;81.41;96736.41;10540566;28;20737;-73
2023/06/22 06:32:29;;;;;;;7.70;6.43;;;;;;;24.95;78.44;96677.59;10540084;28;20222;-73
2023/06/22 06:37:29;;;;;;;10.07;6.03;;;;;;;25.41;66.26;96595.84;10540237;28;20628;-73
2023/06/22 06:42:29;;;;;;;6.40;5.73;;;;;;;24.17;69.62;96639.06;10539856;28;20796;-73
2023/06/22 06:47:30;;;;;;;8.53;6.20;;;;;;;25.20;69.01;96667.19;10539772;28;20917;-73
2023/06/22 06:52:30;;;;;;;6.60;5.90;;;;;;;26.83;64.65;96654.56;10539225;28;20861;-72
2023/06/22 06:57:33;;;;;;;7.15;5.60;;;;;;;27.42;62.26;96648.06;10539482;28;20212;-73
2023/06/22 07:02:33;;;;;;;6.45;5.68;;;;;;;27.83;62.41;96655.38;10538892;28;20290;-71
2023/06/22 07:07:34;;;;;;;6.30;5.67;;;;;;;28.91;58.28;96626.34;10520559;28;20194;-71
2023/06/22 07:12:34;;;;;;;6.60;6.00;;;;;;;29.30;56.67;96616.75;10538545;28;20476;-71
2023/06/22 07:17:35;;;;;;;9.43;6.18;;;;;;;29.14;56.04;96618.69;10537919;28;20186;-70
2023/06/22 07:22:36;;;;;;;8.35;6.38;;;;;;;26.98;65.07;96715.66;10536086;28;20244;-71
2023/06/22 07:27:38;;;;;;;7.45;6.60;;;;;;;25.74;61.15;96633.41;10537697;28;20259;-72
2023/06/22 07:32:38;;;;;;;7.25;5.97;;;;;;;26.39;62.43;96673.66;10519757;28;20750;-72
2023/06/22 07:37:39;;;;;;;8.00;6.20;;;;;;;27.67;57.28;96630.31;10537535;28;20297;-71
2023/06/22 07:42:39;;;;;;;6.88;6.18;;;;;;;28.98;53.75;96593.69;10537336;28;20428;-71
2023/06/22 07:47:39;;;;;;;9.60;6.20;;;;;;;28.22;55.82;96611.72;10537651;28;20277;-73
2023/06/22 07:52:40;;;;;;;9.93;6.17;;;;;;;27.84;55.98;96627.34;10536907;28;20279;-73
2023/06/22 07:57:41;;;;;;;9.23;7.50;;;;;;;27.12;58.48;96654.94;10537094;28;20439;-73
2023/06/22 08:02:43;;;;;;;8.75;6.60;;;;;;;27.22;58.77;96656.84;10536831;28;20432;-73
2023/06/22 08:07:44;;;;;;;8.25;7.18;;;;;;;26.81;56.92;96611.00;10536785;28;20657;-71
2023/06/22 08:12:44;;;;;;;8.73;6.78;;;;;;;27.08;57.46;96626.16;10536550;28;20230;-73
2023/06/22 08:17:48;;;;;;;8.83;6.67;;;;;;;26.65;56.82;96618.19;10536251;28;20205;-73
2023/06/22 08:22:48;;;;;;;9.43;6.43;;;;;;;28.00;57.55;96674.78;10536445;28;20436;-71
2023/06/22 08:27:49;;;;;;;9.93;7.50;;;;;;;27.61;56.64;96640.25;10535849;28;20244;-72
2023/06/22 08:32:49;;;;;;;7.90;6.72;;;;;;;27.14;57.46;96642.03;10535761;28;20210;-71
2023/06/22 08:37:55;;;;;;;11.43;6.93;;;;;;;27.04;57.89;96642.81;10534991;28;20206;-72
2023/06/22 08:42:55;;;;;;;9.38;7.00;;;;;;;28.37;54.77;96621.66;10518419;28;20496;-72
2023/06/22 08:47:56;;;;;;;7.55;6.82;;;;;;;29.49;52.72;96609.56;10536031;28;20285;-72
2023/06/22 08:52:56;;;;;;;8.02;6.90;;;;;;;28.94;54.98;96650.06;10534844;28;20225;-72
2023/06/22 08:57:56;;;;;;;10.10;6.57;;;;;;;30.19;52.43;96632.00;10535982;28;20277;-73
2023/06/22 09:02:58;;;;;;;11.50;7.22;;;;;;;30.85;49.49;96603.44;10535552;28;20425;-73
2023/06/22 09:07:59;;;;;;;8.00;7.18;;;;;;;29.15;52.76;96604.91;10535761;28;20186;-73
2023/06/22 09:12:59;;;;;;;9.47;7.37;;;;;;;29.18;53.11;96607.06;10535275;28;20672;-73
2023/06/22 09:17:59;;;;;;;7.83;7.03;;;;;;;29.40;55.88;96667.16;10535440;28;20810;-72
2023/06/22 09:23:00;;;;;;;8.00;7.20;;;;;;;29.48;52.03;96582.88;10535556;28;20826;-73
2023/06/22 09:28:00;;;;;;;8.17;7.37;;;;;;;27.77;56.40;96617.66;10535338;28;20243;-73
2023/06/22 09:33:01;;;;;;;8.60;7.70;;;;;;;28.42;55.26;96609.00;10535027;28;20574;-72
2023/06/22 09:38:01;;;;;;;8.57;7.50;;;;;;;28.11;56.14;96619.00;10534911;28;20463;-73
2023/06/22 09:43:01;;;;;;;11.43;8.20;;;;;;;28.25;56.97;96633.53;10534978;28;20193;-73
2023/06/22 09:48:02;;;;;;;9.53;7.70;;;;;;;29.61;53.53;96603.03;10538592;28;20977;-73
2023/06/22 09:53:02;;;;;;;8.18;7.32;;;;;;;30.16;51.81;96595.53;10542311;28;20978;-73
2023/06/22 09:58:02;;;;;;;10.17;8.10;;;;;;;29.04;53.44;96584.50;10542076;28;20204;-73
2023/06/22 10:03:03;;;;;;;8.43;7.40;;;;;;;29.66;53.94;96616.47;10541998;28;20520;-72
2023/06/22 10:08:03;;;;;;;9.37;7.47;;;;;;;30.89;51.32;96601.78;10541642;28;20445;-73
2023/06/22 10:13:10;;;;;;;8.23;7.53;;;;;;;32.13;49.11;96597.22;10541284;28;20484;-72
2023/06/22 10:18:11;;;;;;;9.00;7.32;;;;;;;31.48;47.54;96539.22;10553858;28;20194;-73
2023/06/22 10:23:11;;;;;;;7.33;6.73;;;;;;;30.18;52.35;96584.44;10583077;28;20718;-73
2023/06/22 10:28:12;;;;;;;12.97;7.70;;;;;;;30.40;51.97;96579.38;10583132;28;20741;-73
2023/06/22 10:33:12;;;;;;;8.43;7.45;;;;;;;30.98;48.51;96526.22;10582745;28;20910;-73
2023/06/22 10:38:13;;;;;;;9.67;7.23;;;;;;;31.86;47.47;96531.03;10582442;28;20300;-73
2023/06/22 10:43:13;;;;;;;8.23;7.30;;;;;;;31.69;49.62;96566.00;10582635;28;20443;-73
2023/06/22 10:48:13;;;;;;;7.70;7.00;;;;;;;30.87;47.75;96517.38;10581980;28;20451;-73
2023/06/22 10:53:14;;;;;;;10.63;7.17;;;;;;;31.04;46.74;96497.16;10582057;28;20510;-73
2023/06/22 10:58:14;;;;;;;12.07;6.93;;;;;;;30.28;48.67;96502.44;10581250;28;20451;-73
2023/06/22 11:03:14;;;;;;;8.30;7.43;;;;;;;29.51;50.30;96512.94;10581487;28;20419;-73
2023/06/22 11:08:15;;;;;;;8.57;7.10;;;;;;;28.74;53.58;96550.41;10581517;28;20178;-73
2023/06/22 11:13:15;;;;;;;9.32;7.22;;;;;;;28.54;52.61;96524.31;10580826;28;20483;-73
2023/06/22 11:18:16;;;;;;;13.00;8.37;;;;;;;29.50;49.89;96499.72;10581074;28;20280;-73
2023/06/22 11:23:16;;;;;;;8.52;7.38;;;;;;;30.40;49.83;96528.00;10580832;28;20424;-73
2023/06/22 11:28:17;;;;;;;9.65;6.75;;;;;;;32.04;47.33;96518.50;10580530;28;20214;-73
2023/06/22 11:33:18;;;;;;;8.30;7.20;;;;;;;31.75;47.07;96497.91;10579959;28;20226;-72
2023/06/22 11:38:18;;;;;;;7.43;6.63;;;;;;;30.97;46.68;96462.34;10580031;28;20551;-72
2023/06/22 11:43:18;;;;;;;7.20;6.50;;;;;;;28.00;52.56;96475.50;10561772;28;20444;-71
2023/06/22 11:48:19;;;;;;;10.30;7.23;;;;;;;28.99;52.04;96509.00;10579944;28;20446;-72
2023/06/22 11:53:21;;;;;;;10.63;7.30;;;;;;;29.35;51.79;96511.47;10579584;28;20573;-71
2023/06/22 11:58:22;;;;;;;7.13;6.43;;;;;;;29.65;50.75;96496.09;10579942;28;20442;-71
2023/06/22 12:03:22;;;;;;;10.23;6.60;;;;;;;30.02;49.93;96479.25;10578904;28;20189;-71
2023/06/22 12:08:23;;;;;;;9.83;6.40;;;;;;;29.97;49.80;96470.38;10561129;28;20380;-72
2023/06/22 12:13:23;;;;;;;7.97;6.30;;;;;;;29.94;48.84;96452.06;10577669;28;20483;-72
2023/06/22 12:18:24;;;;;;;9.83;7.07;;;;;;;28.87;51.25;96451.91;10579155;28;20519;-71
2023/06/22 12:23:24;;;;;;;11.07;6.75;;;;;;;28.57;53.35;96491.44;10578943;28;20440;-71
2023/06/22 12:28:25;;;;;;;8.43;6.70;;;;;;;28.35;51.88;96454.88;10578553;28;20221;-71
2023/06/22 12:33:25;;;;;;;10.23;6.97;;;;;;;28.92;51.23;96441.09;10578097;28;20317;-72
2023/06/22 12:38:25;;;;;;;8.87;6.40;;;;;;;30.58;50.95;96494.00;10578369;28;20214;-72
2023/06/22 12:43:26;;;;;;;8.60;6.28;;;;;;;31.81;45.42;96410.03;10578356;28;20466;-72
2023/06/22 12:48:27;;;;;;;6.77;5.67;;;;;;;33.07;42.61;96392.34;10578373;28;20185;-72
2023/06/22 12:53:27;;;;;;;8.70;6.47;;;;;;;31.19;46.42;96398.69;10577985;28;20505;-72
2023/06/22 12:58:28;;;;;;;9.55;6.00;;;;;;;31.20;46.74;96392.97;10578357;28;20221;-72
2023/06/22 13:03:28;;;;;;;7.87;6.40;;;;;;;31.19;47.95;96425.75;10577785;28;20193;-73
2023/06/22 13:08:29;;;;;;;9.20;5.90;;;;;;;32.20;46.18;96434.22;10577994;28;20435;-72
2023/06/22 13:13:29;;;;;;;7.95;6.18;;;;;;;31.85;46.36;96407.50;10577526;28;20532;-72
2023/06/22 13:18:30;;;;;;;7.45;6.57;;;;;;;31.29;45.58;96371.44;10577777;28;20177;-72
2023/06/22 13:23:30;;;;;;;7.03;6.07;;;;;;;30.86;47.46;96385.94;10582427;28;20659;-72
2023/06/22 13:28:31;;;;;;;9.60;5.88;;;;;;;32.31;43.78;96365.94;10567594;28;20186;-72
2023/06/22 13:33:31;;;;;;;9.27;6.77;;;;;;;31.16;45.58;96364.09;10585279;28;20221;-72
2023/06/22 13:38:32;;;;;;;6.60;5.10;;;;;;;33.29;42.48;96351.94;10585413;28;20947;-72
2023/06/22 13:43:32;;;;;;;7.80;5.45;;;;;;;32.46;41.99;96290.75;10584888;28;20984;-72
2023/06/22 13:48:33;;;;;;;10.38;5.90;;;;;;;31.75;43.22;96283.13;10584779;28;20182;-72
2023/06/22 13:53:33;;;;;;;7.20;6.20;;;;;;;32.21;43.60;96311.09;10584749;28;20753;-72
2023/06/22 13:58:33;;;;;;;9.47;6.00;;;;;;;34.39;41.69;96352.09;10584633;28;20435;-73
2023/06/22 14:03:34;;;;;;;7.03;6.33;;;;;;;32.54;43.54;96320.66;10584281;28;20467;-72
2023/06/22 14:08:34;;;;;;;9.20;6.13;;;;;;;32.53;41.94;96272.94;10584063;28;20438;-72
2023/06/22 14:13:35;;;;;;;9.90;5.57;;;;;;;33.51;42.27;96322.00;10583544;28;20483;-73
2023/06/22 14:18:35;;;;;;;7.90;5.95;;;;;;;32.88;42.13;96286.72;10583619;28;20923;-72
2023/06/22 14:23:37;;;;;;;12.47;5.67;;;;;;;35.06;38.57;96290.84;10583512;28;20185;-72
2023/06/22 14:28:38;;;;;;;9.95;5.22;;;;;;;35.82;37.20;96275.63;10583408;28;20439;-73
2023/06/22 14:33:38;;;;;;;8.07;5.97;;;;;;;35.94;36.24;96238.63;10581445;28;20587;-73
2023/06/22 14:38:38;;;;;;;7.17;5.33;;;;;;;36.75;37.32;96286.41;10583063;28;20580;-72
2023/06/22 14:43:43;;;;;;;6.63;5.93;;;;;;;35.43;38.35;96247.59;10582457;28;20182;-72
2023/06/22 14:48:44;;;;;;;6.97;5.32;;;;;;;34.77;39.26;96226.28;10582294;28;20429;-72
2023/06/22 14:53:45;;;;;;;7.03;5.83;;;;;;;36.10;36.64;96217.00;10581397;28;20255;-72
2023/06/22 14:58:45;;;;;;;10.38;6.97;;;;;;;34.48;38.56;96198.63;10581542;28;20588;-72
2023/06/22 15:03:46;;;;;;;10.15;6.00;;;;;;;34.13;39.86;96223.13;10581813;28;20242;-72
2023/06/22 15:08:46;;;;;;;7.07;5.90;;;;;;;33.02;41.96;96226.94;10581407;28;20664;-72
2023/06/22 15:13:46;;;;;;;11.13;5.85;;;;;;;33.40;40.89;96209.31;10581084;28;20562;-72
2023/06/22 15:18:48;;;;;;;7.17;6.03;;;;;;;32.32;42.66;96191.28;10581231;28;20272;-72
2023/06/22 15:23:48;;;;;;;8.98;5.75;;;;;;;34.12;39.82;96207.13;10580523;28;20525;-72
2023/06/22 15:28:48;;;;;;;6.53;5.50;;;;;;;31.15;44.49;96176.59;10580904;28;20731;-72
2023/06/22 15:33:49;;;;;;;9.53;6.47;;;;;;;33.69;41.52;96222.31;10579613;28;20475;-72
2023/06/22 15:38:49;;;;;;;8.50;6.63;;;;;;;33.51;40.90;96185.38;10561945;28;20499;-72
2023/06/22 15:43:50;;;;;;;7.40;6.20;;;;;;;32.32;42.88;96166.91;10579644;28;20455;-72
2023/06/22 15:48:50;;;;;;;8.87;7.37;;;;;;;31.21;44.32;96151.03;10579725;28;20222;-72
2023/06/22 15:53:50;;;;;;;7.57;6.50;;;;;;;31.14;46.57;96204.75;10579551;28;20483;-72
2023/06/22 15:58:51;;;;;;;8.47;6.40;;;;;;;32.01;44.78;96178.47;10579296;28;20456;-72
2023/06/22 16:03:51;;;;;;;9.48;6.28;;;;;;;31.00;46.39;96160.69;10579325;28;20475;-72
2023/06/22 16:08:51;;;;;;;9.60;6.57;;;;;;;30.44;47.79;96181.44;10578982;28;20629;-72
2023/06/22 16:13:52;;;;;;;12.10;7.07;;;;;;;30.46;47.16;96177.34;10578822;28;20483;-72
2023/06/22 16:18:52;;;;;;;10.03;6.63;;;;;;;29.32;49.37;96188.22;10578787;28;20530;-72
2023/06/22 16:23:52;;;;;;;10.02;6.53;;;;;;;29.53;49.93;96197.66;10578581;28;20431;-72
2023/06/22 16:28:53;;;;;;;8.07;7.27;;;;;;;29.61;49.26;96185.38;10578658;28;20193;-72
2023/06/22 16:33:53;;;;;;;7.03;6.27;;;;;;;30.67;47.13;96190.47;10577901;28;21005;-72
2023/06/22 16:38:53;;;;;;;7.73;6.80;;;;;;;29.64;48.75;96192.09;10578211;28;20971;-72
2023/06/22 16:43:54;;;;;;;11.93;7.10;;;;;;;29.25;49.53;96191.28;10578139;28;20916;-71
2023/06/22 16:48:54;;;;;;;10.90;7.30;;;;;;;29.00;50.42;96185.09;10577983;28;20981;-71
2023/06/22 16:53:58;;;;;;;10.63;6.90;;;;;;;28.51;51.74;96191.50;10577768;28;20978;-71
2023/06/22 16:58:58;;;;;;;11.13;6.80;;;;;;;28.15;52.50;96185.63;10583580;28;20435;-72
2023/06/22 17:04:09;;;;;;;7.20;6.53;;;;;;;28.02;53.14;96177.13;10568196;28;20193;-72
2023/06/22 17:09:14;;;;;;;8.38;6.97;;;;;;;28.59;52.89;96180.16;10586249;28;20493;-72
2023/06/22 17:14:14;;;;;;;11.43;7.05;;;;;;;28.45;53.10;96177.28;10585936;28;20229;-72
2023/06/22 17:19:15;;;;;;;7.85;6.68;;;;;;;28.12;53.65;96176.25;10567670;28;20198;-72
2023/06/22 17:24:19;;;;;;;14.80;7.55;;;;;;;27.73;55.19;96169.78;10585570;28;20247;-72
2023/06/22 17:29:20;;;;;;;9.32;7.03;;;;;;;27.85;55.75;96182.88;10585436;28;20190;-71
2023/06/22 17:34:20;;;;;;;9.10;7.32;;;;;;;27.93;55.07;96168.00;10584859;28;20210;-71
2023/06/22 17:39:22;;;;;;;8.15;7.00;;;;;;;27.76;55.05;96158.47;10566690;28;20209;-72
2023/06/22 17:44:23;;;;;;;10.25;6.97;;;;;;;27.42;55.99;96160.31;10584501;28;20187;-71
2023/06/22 17:49:33;;;;;;;10.02;7.05;;;;;;;27.35;56.27;96164.09;10584622;28;20674;-71
2023/06/22 17:54:34;;;;;;;8.02;6.70;;;;;;;27.37;57.43;96166.50;10584500;28;20224;-71
2023/06/22 17:59:34;;;;;;;9.63;7.10;;;;;;;27.04;58.26;96168.78;10584109;28;20184;-72
2023/06/22 18:04:35;;;;;;;11.50;7.20;;;;;;;27.05;59.01;96165.03;10584114;28;20440;-72
2023/06/22 18:09:35;;;;;;;9.52;7.72;;;;;;;26.80;60.13;96160.53;10565756;28;20243;-72
2023/06/22 18:14:37;;;;;;;12.70;9.02;;;;;;;26.68;60.88;96161.66;10565037;28;20689;-72
2023/06/22 18:19:38;;;;;;;9.40;7.07;;;;;;;26.54;61.57;96160.59;10583642;28;20276;-72
2023/06/22 18:24:40;;;;;;;11.18;7.82;;;;;;;26.31;62.42;96167.34;10582765;28;20646;-72
2023/06/22 18:29:41;;;;;;;9.55;8.18;;;;;;;26.29;63.59;96156.88;10582993;28;20641;-72
2023/06/22 18:34:42;;;;;;;11.68;7.78;;;;;;;26.20;63.50;96149.63;10582287;28;20229;-72
2023/06/22 18:39:44;;;;;;;9.60;7.35;;;;;;;26.02;64.90;96161.72;10582464;28;20211;-72
2023/06/22 18:44:51;;;;;;;11.13;7.78;;;;;;;25.81;65.86;96150.97;10547696;28;20184;-72
2023/06/22 18:49:51;;;;;;;10.43;7.78;;;;;;;25.70;66.57;96154.72;10581713;28;20192;-72
2023/06/22 18:54:54;;;;;;;12.73;7.70;;;;;;;25.42;68.92;96163.00;10582308;28;20671;-72
2023/06/22 18:59:54;;;;;;;11.15;8.00;;;;;;;25.32;69.29;96170.22;10563591;28;20446;-72
2023/06/22 19:05:08;;;;;;;11.10;8.27;;;;;;;25.11;71.13;96188.88;10581507;28;20186;-73
2023/06/22 19:10:42;;;;;;;10.05;8.65;;;;;;;25.10;70.86;96187.28;10580924;28;20523;-72
2023/06/22 19:15:43;;;;;;;12.02;7.95;;;;;;;25.04;72.21;96193.69;10526364;28;20258;-72
2023/06/22 19:20:48;;;;;;;9.95;8.25;;;;;;;25.08;71.54;96184.84;10579913;28;20654;-72
2023/06/22 19:25:48;;;;;;;10.15;8.43;;;;;;;24.97;71.86;96167.09;10580944;28;20244;-72
2023/06/22 19:30:49;;;;;;;10.90;9.30;;;;;;;24.90;72.52;96163.84;10580554;28;20839;-72
2023/06/22 19:35:49;;;;;;;10.43;9.07;;;;;;;24.86;72.93;96152.88;10579753;28;20553;-72
2023/06/22 19:40:50;;;;;;;13.57;9.43;;;;;;;24.79;73.55;96146.13;10580342;28;20210;-72
2023/06/22 19:45:50;;;;;;;10.35;9.27;;;;;;;24.81;73.67;96135.94;10579570;28;20549;-72
2023/06/22 19:50:51;;;;;;;11.98;9.00;;;;;;;24.90;73.48;96119.13;10579830;28;20218;-72
2023/06/22 19:55:51;;;;;;;11.05;9.32;;;;;;;24.92;73.75;96103.59;10579462;28;20197;-73
2023/06/22 20:00:54;;;;;;;13.98;9.07;;;;;;;24.90;74.02;96099.53;10579321;28;20280;-73
2023/06/22 20:05:55;;;;;;;10.15;9.07;;;;;;;24.98;73.64;96095.56;10579090;28;20769;-72
2023/06/22 20:10:58;;;;;;;14.32;9.35;;;;;;;25.07;73.50;96104.72;10578483;28;20229;-72
2023/06/22 20:16:08;;;;;;;10.63;9.23;;;;;;;25.08;72.97;96079.50;10579154;28;20189;-72
2023/06/22 20:21:12;;;;;;;16.40;8.65;;;;;;;25.19;72.61;96064.25;10578644;28;20273;-73
2023/06/22 20:26:16;;;;;;;13.15;9.38;;;;;;;25.17;72.98;96042.28;10578709;28;20557;-72
2023/06/22 20:31:17;;;;;;;13.07;9.73;;;;;;;25.16;73.32;96051.38;10577496;28;20567;-72
2023/06/22 20:36:17;;;;;;;10.60;9.50;;;;;;;25.22;73.37;96039.59;10578071;28;20280;-73
2023/06/22 20:41:18;;;;;;;14.57;9.75;;;;;;;25.12;74.49;96021.63;10578167;28;20271;-72
2023/06/22 20:46:18;;;;;;;18.63;9.95;;;;;;;24.79;76.87;96004.94;10574203;28;20206;-72
2023/06/22 20:51:18;;;;;;;14.05;9.52;;;;;;;24.15;84.74;96057.72;10559003;28;20271;-73
2023/06/22 20:56:19;;;;;;;17.33;10.30;;;;;;;23.93;87.71;96073.09;10536304;28;20194;-73
2023/06/22 21:01:19;;;;;;;13.50;9.75;;;;;;;23.92;88.38;96080.31;10535750;28;20324;-73
2023/06/22 21:06:20;;;;;;;14.35;10.52;;;;;;;24.01;87.30;96064.56;10535574;28;20179;-73
2023/06/22 21:11:20;;;;;;;13.82;8.93;;;;;;;24.38;83.38;96093.97;10535485;28;20345;-73
2023/06/22 21:16:20;;;;;;;14.25;9.85;;;;;;;24.65;80.41;96081.53;10535585;28;20190;-73
2023/06/22 21:21:21;;;;;;;13.20;9.38;;;;;;;24.55;80.94;96122.44;10535844;28;20682;-72
2023/06/22 21:26:21;;;;;;;17.85;9.45;;;;;;;24.34;83.67;96110.81;10535214;28;20534;-73
2023/06/22 21:31:21;;;;;;;16.00;9.50;;;;;;;23.78;90.61;96097.81;10535436;28;20633;-74
2023/06/22 21:36:22;;;;;;;16.33;11.25;;;;;;;22.96;100.00;96113.88;10534890;28;20257;-75
2023/06/22 21:41:22;;;;;;;19.10;11.35;;;;;;;22.55;100.00;96084.81;10535090;28;20302;-74
2023/06/22 21:46:22;;;;;;;20.35;12.57;;;;;;;22.19;100.00;96055.00;10542319;28;20182;-74
2023/06/22 21:51:23;;;;;;;14.40;10.52;;;;;;;21.97;100.00;96070.13;10542494;28;20230;-73
2023/06/22 21:56:23;;;;;;;16.67;11.45;;;;;;;21.79;100.00;96076.53;10542515;28;20198;-74
2023/06/22 22:01:24;;;;;;;21.30;10.93;;;;;;;21.64;100.00;96077.09;10542064;28;20194;-73
2023/06/22 22:06:26;;;;;;;18.42;11.00;;;;;;;21.56;100.00;96086.31;10542135;28;20209;-73
2023/06/22 22:11:26;;;;;;;14.35;10.65;;;;;;;21.46;100.00;96068.28;10541593;28;20363;-73
2023/06/22 22:16:27;;;;;;;16.27;11.15;;;;;;;21.35;100.00;96040.66;10541455;28;20212;-74
2023/06/22 22:21:27;;;;;;;15.65;12.07;;;;;;;21.19;100.00;96081.41;10541604;28;20270;-74
2023/06/22 22:26:28;;;;;;;14.38;11.60;;;;;;;20.95;100.00;96168.56;10540908;28;20199;-74
2023/06/22 22:31:28;;;;;;;20.70;12.07;;;;;;;20.68;100.00;96182.41;10541080;28;20242;-72
2023/06/22 22:36:28;;;;;;;15.50;12.85;;;;;;;20.74;100.00;96141.53;10540538;28;20277;-73
2023/06/22 22:41:29;;;;;;;20.25;14.02;;;;;;;20.17;100.00;96134.19;10540694;28;20312;-73
2023/06/22 22:46:29;;;;;;;17.30;11.63;;;;;;;19.50;100.00;96150.34;10540577;28;20183;-72
2023/06/22 22:51:29;;;;;;;7.45;5.43;;;;;;;18.35;100.00;96282.69;10540087;28;20218;-73
2023/06/22 22:56:30;;;;;;;18.05;4.47;;;;;;;16.89;100.00;96336.09;10539327;28;20197;-73
2023/06/22 23:01:30;;;;;;;9.60;3.40;;;;;;;15.79;100.00;96354.88;10539665;28;20218;-74
2023/06/22 23:06:31;;;;;;;10.25;3.88;;;;;;;15.16;100.00;96360.25;10539702;28;20187;-75